Terminal Aerodrome Forecast
Issued by NWS Blacksburg, VA

Home | Current Version | Previous Version | Text Only | Print | Product List | Glossary On
Versions: 1 2 3 4 5 6 7 8 9 10 11 12
000
FTUS41 KRNK 251720
TAFDAN
TAF
KDAN 251720Z 2518/2618 21008KT P6SM SKC
     FM252300 24003KT P6SM SKC
     FM260900 29005KT P6SM FEW060
     FM261600 29010G20KT P6SM SKC=

USA.gov is the U.S. government's official web portal to all federal, state and local government web resources and services.